Thunder radar more information blitzortung!


Radar de pluja more information rain snow radar


Visita la nostra xarxa de llocs de meteo:

Template documentation
and downloads

And another site



No particular awareness of the weather is required.    There are no Weather-warnings

Pagina Historial Weather Underground text

Diari Resum February 4, 2018 Unitats:  Tant    Imperial   Mètric
« Previous Dia
SegĂźent Dia »
Diari Setmana Mensual Anual Personalitzada
  Maxima: Minima: Media:
Temperatura: TemperatureC °F /  -17.8 °C 4.0 °F /  -15.6 °C 5.4 °F /  -14.8 °C
Punt de rosada: DewpointC °F /  -17.8 °C -1.0 °F /  -18.3 °C 1.2 °F /  -17.1 °C
Humitat: Humidity % 61 % 75 %
Wind Speed: WindSpeedKMH mph /  0 km/h - 4.9 mph /  7.9 km/h
RĂ fegues de vent: WindSpeedGustKMH mph /  0 km/h - -
Vent:- - ENE
Pression baro: PressurehPa in /  0 hPa 1007.0 in /  34097 hPa -
Precipitacions: 26.4 in /  670.56 mm    
Historical Graphs
 
 
Dades de taula per February 4, 2018
Temps Temperatura Punt de rosada Pression baro Vent Wind Speed RĂ fegues de vent Humitat Rainfall Rate (Hourly)
TemperatureC °F /  -17.8 °C DewpointC °F /  -17.8 °C PressurehPa in /  0 hPa Calm     Humidity % HourlyPrecipMM in /  0 mm
00:04 6.8 °F /  -14 °C -0.2 °F /  -17.9 °C 1010.0 in /  34198.6 hPa West 3.7 mph /  6 km/h 3.7 mph /  6 km/h 61 % 0.0 in /  0 mm
00:09 6.7 °F /  -14.1 °C -0.3 °F /  -17.9 °C 1010.0 in /  34198.6 hPa WSW 2.3 mph /  3.7 km/h 2.3 mph /  3.7 km/h 61 % 0.0 in /  0 mm
00:14 6.8 °F /  -14 °C -0.2 °F /  -17.9 °C 1010.0 in /  34198.6 hPa WSW 6.1 mph /  9.8 km/h 6.1 mph /  9.8 km/h 61 % 0.0 in /  0 mm
00:19 6.7 °F /  -14.1 °C -0.3 °F /  -17.9 °C 1010.0 in /  34198.6 hPa WSW 3.7 mph /  6 km/h 3.7 mph /  6 km/h 61 % 0.0 in /  0 mm
00:24 6.5 °F /  -14.2 °C -0.5 °F /  -18.1 °C 1010.0 in /  34198.6 hPa SW 1.9 mph /  3.1 km/h   61 % 0.0 in /  0 mm
00:29 6.5 °F /  -14.2 °C -0.5 °F /  -18.1 °C 1010.0 in /  34198.6 hPa Calm     61 % 0.0 in /  0 mm
00:34 6.4 °F /  -14.2 °C -0.6 °F /  -18.1 °C 1010.0 in /  34198.6 hPa WNW 2.3 mph /  3.7 km/h 2.3 mph /  3.7 km/h 61 % 0.0 in /  0 mm
00:39 6.4 °F /  -14.2 °C -0.6 °F /  -18.1 °C 1010.0 in /  34198.6 hPa WNW 5.6 mph /  9 km/h 5.6 mph /  9 km/h 61 % 0.0 in /  0 mm
00:44 6.4 °F /  -14.2 °C -0.3 °F /  -17.9 °C 1010.0 in /  34198.6 hPa WNW 4.2 mph /  6.8 km/h 4.2 mph /  6.8 km/h 62 % 0.0 in /  0 mm
00:49 6.2 °F /  -14.3 °C -0.6 °F /  -18.1 °C 1010.0 in /  34198.6 hPa SW 3.7 mph /  6 km/h 3.7 mph /  6 km/h 62 % 0.0 in /  0 mm
00:54 6.2 °F /  -14.3 °C -0.6 °F /  -18.1 °C 1010.0 in /  34198.6 hPa WNW 1.9 mph /  3.1 km/h   62 % 0.0 in /  0 mm
00:59 6.0 °F /  -14.4 °C -0.7 °F /  -18.2 °C 1010.7 in /  34222.3 hPa North 4.7 mph /  7.6 km/h 4.7 mph /  7.6 km/h 62 % 0.0 in /  0 mm
01:04 5.9 °F /  -14.5 °C -0.6 °F /  -18.1 °C 1010.7 in /  34222.3 hPa NNE 3.7 mph /  6 km/h 3.7 mph /  6 km/h 63 % 0.0 in /  0 mm
01:09 5.8 °F /  -14.6 °C -0.7 °F /  -18.2 °C 1010.7 in /  34222.3 hPa North 1.9 mph /  3.1 km/h 1.9 mph /  3.1 km/h 63 % 0.0 in /  0 mm
01:14 5.7 °F /  -14.6 °C -0.8 °F /  -18.2 °C 1010.0 in /  34198.6 hPa WNW 1.9 mph /  3.1 km/h 1.9 mph /  3.1 km/h 63 % 0.0 in /  0 mm
01:19 5.6 °F /  -14.7 °C -0.9 °F /  -18.3 °C 1010.0 in /  34198.6 hPa South 2.3 mph /  3.7 km/h   63 % 0.0 in /  0 mm
01:24 5.6 °F /  -14.7 °C -0.9 °F /  -18.3 °C 1010.0 in /  34198.6 hPa NNW 1.9 mph /  3.1 km/h   63 % 0.0 in /  0 mm
01:29 5.5 °F /  -14.7 °C -1.0 °F /  -18.3 °C 1010.0 in /  34198.6 hPa NNE 1.9 mph /  3.1 km/h 2.3 mph /  3.7 km/h 63 % 0.0 in /  0 mm
01:34 5.4 °F /  -14.8 °C -0.9 °F /  -18.3 °C 1010.0 in /  34198.6 hPa WNW 1.4 mph /  2.3 km/h   64 % 0.0 in /  0 mm
01:39 5.5 °F /  -14.7 °C -0.8 °F /  -18.2 °C 1010.0 in /  34198.6 hPa NNE 3.7 mph /  6 km/h 3.7 mph /  6 km/h 64 % 0.0 in /  0 mm
01:44 5.6 °F /  -14.7 °C -0.7 °F /  -18.2 °C 1010.0 in /  34198.6 hPa WNW 5.6 mph /  9 km/h 5.6 mph /  9 km/h 64 % 0.0 in /  0 mm
01:49 5.6 °F /  -14.7 °C -0.7 °F /  -18.2 °C 1010.0 in /  34198.6 hPa NNE 3.9 mph /  6.3 km/h 3.9 mph /  6.3 km/h 64 % 0.0 in /  0 mm
01:54 5.6 °F /  -14.7 °C -0.7 °F /  -18.2 °C 1010.0 in /  34198.6 hPa NNE 3.5 mph /  5.6 km/h   64 % 0.0 in /  0 mm
01:59 5.6 °F /  -14.7 °C -0.7 °F /  -18.2 °C 1010.0 in /  34198.6 hPa NNE 3.7 mph /  6 km/h 3.7 mph /  6 km/h 64 % 0.0 in /  0 mm
02:04 5.6 °F /  -14.7 °C -0.7 °F /  -18.2 °C 1010.0 in /  34198.6 hPa NNE 3.7 mph /  6 km/h   64 % 0.0 in /  0 mm
02:09 5.6 °F /  -14.7 °C -0.4 °F /  -18 °C 1010.0 in /  34198.6 hPa NE 6.4 mph /  10.3 km/h 6.4 mph /  10.3 km/h 65 % 0.0 in /  0 mm
02:14 5.5 °F /  -14.7 °C -0.6 °F /  -18.1 °C 1010.0 in /  34198.6 hPa North 3.9 mph /  6.3 km/h 3.9 mph /  6.3 km/h 65 % 0.0 in /  0 mm
02:19 5.5 °F /  -14.7 °C -0.6 °F /  -18.1 °C 1010.0 in /  34198.6 hPa NW 3.7 mph /  6 km/h 3.7 mph /  6 km/h 65 % 0.0 in /  0 mm
02:24 5.5 °F /  -14.7 °C -0.6 °F /  -18.1 °C 1010.0 in /  34198.6 hPa NNE 3.7 mph /  6 km/h 3.7 mph /  6 km/h 65 % 0.0 in /  0 mm
02:29 5.6 °F /  -14.7 °C -0.4 °F /  -18 °C 1010.0 in /  34198.6 hPa NNE 3.7 mph /  6 km/h 3.7 mph /  6 km/h 65 % 0.0 in /  0 mm
02:34 5.6 °F /  -14.7 °C -0.4 °F /  -18 °C 1010.0 in /  34198.6 hPa NNW 5.6 mph /  9 km/h 5.6 mph /  9 km/h 65 % 0.0 in /  0 mm
02:39 5.7 °F /  -14.6 °C -0.4 °F /  -18 °C 1010.0 in /  34198.6 hPa NNE 7.4 mph /  11.9 km/h 7.4 mph /  11.9 km/h 65 % 0.0 in /  0 mm
02:44 5.7 °F /  -14.6 °C -0.4 °F /  -18 °C 1010.0 in /  34198.6 hPa NNE 7.9 mph /  12.7 km/h 7.9 mph /  12.7 km/h 65 % 0.0 in /  0 mm
02:49 5.7 °F /  -14.6 °C -0.2 °F /  -17.9 °C 1010.0 in /  34198.6 hPa North 9.3 mph /  15 km/h 9.3 mph /  15 km/h 66 % 0.0 in /  0 mm
02:54 5.7 °F /  -14.6 °C -0.2 °F /  -17.9 °C 1010.0 in /  34198.6 hPa NNE 5.6 mph /  9 km/h 5.6 mph /  9 km/h 66 % 0.0 in /  0 mm
02:59 5.7 °F /  -14.6 °C -0.2 °F /  -17.9 °C 1010.0 in /  34198.6 hPa NNW 2.3 mph /  3.7 km/h   66 % 0.0 in /  0 mm
03:04 5.7 °F /  -14.6 °C -0.4 °F /  -18 °C 1010.0 in /  34198.6 hPa NNE 3.9 mph /  6.3 km/h 3.9 mph /  6.3 km/h 65 % 0.0 in /  0 mm
03:09 5.6 °F /  -14.7 °C -0.3 °F /  -17.9 °C 1010.0 in /  34198.6 hPa NNE 3.7 mph /  6 km/h 3.7 mph /  6 km/h 66 % 0.0 in /  0 mm
03:14 5.6 °F /  -14.7 °C -0.3 °F /  -17.9 °C 1010.0 in /  34198.6 hPa East 3.7 mph /  6 km/h 3.7 mph /  6 km/h 66 % 0.0 in /  0 mm
03:19 5.7 °F /  -14.6 °C -0.2 °F /  -17.9 °C 1010.0 in /  34198.6 hPa North 3.2 mph /  5.1 km/h   66 % 0.0 in /  0 mm
03:24 5.7 °F /  -14.6 °C -0.2 °F /  -17.9 °C 1010.0 in /  34198.6 hPa NE 7.4 mph /  11.9 km/h 7.4 mph /  11.9 km/h 66 % 0.0 in /  0 mm
03:29 5.7 °F /  -14.6 °C -0.2 °F /  -17.9 °C 1010.0 in /  34198.6 hPa NNE 4.7 mph /  7.6 km/h 4.7 mph /  7.6 km/h 66 % 0.0 in /  0 mm
03:34 5.8 °F /  -14.6 °C -0.1 °F /  -17.8 °C 1010.0 in /  34198.6 hPa NNE 7.4 mph /  11.9 km/h 7.4 mph /  11.9 km/h 66 % 0.0 in /  0 mm
03:39 5.7 °F /  -14.6 °C -0.2 °F /  -17.9 °C 1010.0 in /  34198.6 hPa NE 3.7 mph /  6 km/h 3.7 mph /  6 km/h 66 % 0.0 in /  0 mm
03:44 5.7 °F /  -14.6 °C -0.2 °F /  -17.9 °C 1009.0 in /  34164.7 hPa NNE 3.2 mph /  5.1 km/h 3.2 mph /  5.1 km/h 66 % 0.0 in /  0 mm
03:49 5.7 °F /  -14.6 °C -0.2 °F /  -17.9 °C 1009.0 in /  34164.7 hPa NNW 5.6 mph /  9 km/h 5.6 mph /  9 km/h 66 % 0.0 in /  0 mm
03:54 5.7 °F /  -14.6 °C -0.2 °F /  -17.9 °C 1009.0 in /  34164.7 hPa NE 7.4 mph /  11.9 km/h 7.4 mph /  11.9 km/h 66 % 0.0 in /  0 mm
03:59 5.7 °F /  -14.6 °C -0.2 °F /  -17.9 °C 1010.0 in /  34198.6 hPa NNE 6.4 mph /  10.3 km/h 6.4 mph /  10.3 km/h 66 % 0.0 in /  0 mm
04:04 5.7 °F /  -14.6 °C -0.2 °F /  -17.9 °C 1010.0 in /  34198.6 hPa NNW 3.7 mph /  6 km/h 3.7 mph /  6 km/h 66 % 0.0 in /  0 mm
04:09 5.7 °F /  -14.6 °C -0.2 °F /  -17.9 °C 1010.0 in /  34198.6 hPa NE 3.7 mph /  6 km/h 3.7 mph /  6 km/h 66 % 0.0 in /  0 mm
04:14 5.7 °F /  -14.6 °C -0.2 °F /  -17.9 °C 1010.0 in /  34198.6 hPa NNE 4.7 mph /  7.6 km/h 4.7 mph /  7.6 km/h 66 % 0.0 in /  0 mm
04:19 5.6 °F /  -14.7 °C -0.3 °F /  -17.9 °C 1010.0 in /  34198.6 hPa ENE 3.7 mph /  6 km/h 3.7 mph /  6 km/h 66 % 0.0 in /  0 mm
04:24 5.7 °F /  -14.6 °C -0.2 °F /  -17.9 °C 1010.0 in /  34198.6 hPa NNE 7.4 mph /  11.9 km/h 7.4 mph /  11.9 km/h 66 % 0.0 in /  0 mm
04:29 5.7 °F /  -14.6 °C -0.2 °F /  -17.9 °C 1010.0 in /  34198.6 hPa NNE 5.6 mph /  9 km/h 5.6 mph /  9 km/h 66 % 0.0 in /  0 mm
04:34 5.7 °F /  -14.6 °C -0.2 °F /  -17.9 °C 1010.0 in /  34198.6 hPa NE 3.7 mph /  6 km/h 3.7 mph /  6 km/h 66 % 0.0 in /  0 mm
04:39 5.7 °F /  -14.6 °C -0.2 °F /  -17.9 °C 1010.0 in /  34198.6 hPa NE 4.2 mph /  6.8 km/h 4.2 mph /  6.8 km/h 66 % 0.0 in /  0 mm
04:44 5.8 °F /  -14.6 °C -0.1 °F /  -17.8 °C 1010.0 in /  34198.6 hPa NNE 9.0 mph /  14.5 km/h 9.0 mph /  14.5 km/h 66 % 0.0 in /  0 mm
04:49 5.8 °F /  -14.6 °C -0.1 °F /  -17.8 °C 1010.0 in /  34198.6 hPa NNE 8.7 mph /  14 km/h 8.7 mph /  14 km/h 66 % 0.0 in /  0 mm
04:54 5.7 °F /  -14.6 °C -0.2 °F /  -17.9 °C 1010.0 in /  34198.6 hPa ENE 3.7 mph /  6 km/h 3.7 mph /  6 km/h 66 % 0.0 in /  0 mm
04:59 5.7 °F /  -14.6 °C -0.2 °F /  -17.9 °C 1009.0 in /  34164.7 hPa NNE 3.7 mph /  6 km/h 3.7 mph /  6 km/h 66 % 0.0 in /  0 mm
05:04 5.6 °F /  -14.7 °C -0.3 °F /  -17.9 °C 1009.0 in /  34164.7 hPa WSW 3.7 mph /  6 km/h 3.7 mph /  6 km/h 66 % 0.0 in /  0 mm
05:09 5.5 °F /  -14.7 °C -0.3 °F /  -17.9 °C 1009.0 in /  34164.7 hPa SSW 3.2 mph /  5.1 km/h   66 % 0.0 in /  0 mm
05:14 5.5 °F /  -14.7 °C -0.3 °F /  -17.9 °C 1010.0 in /  34198.6 hPa West 5.6 mph /  9 km/h 5.6 mph /  9 km/h 66 % 0.0 in /  0 mm
05:19 5.5 °F /  -14.7 °C -0.3 °F /  -17.9 °C 1010.0 in /  34198.6 hPa ENE 5.6 mph /  9 km/h 5.6 mph /  9 km/h 66 % 0.0 in /  0 mm
05:24 5.5 °F /  -14.7 °C -0.3 °F /  -17.9 °C 1010.0 in /  34198.6 hPa NNE 5.6 mph /  9 km/h 5.6 mph /  9 km/h 66 % 0.0 in /  0 mm
05:29 5.5 °F /  -14.7 °C -0.3 °F /  -17.9 °C 1010.7 in /  34222.3 hPa West 7.4 mph /  11.9 km/h 7.4 mph /  11.9 km/h 66 % 0.0 in /  0 mm
05:34 5.5 °F /  -14.7 °C -0.3 °F /  -17.9 °C 1010.7 in /  34222.3 hPa SW 3.7 mph /  6 km/h 3.7 mph /  6 km/h 66 % 0.0 in /  0 mm
05:39 5.4 °F /  -14.8 °C -0.4 °F /  -18 °C 1010.7 in /  34222.3 hPa SW 3.7 mph /  6 km/h 3.7 mph /  6 km/h 66 % 0.0 in /  0 mm
05:44 5.3 °F /  -14.8 °C -0.3 °F /  -17.9 °C 1010.7 in /  34222.3 hPa Calm     67 % 0.0 in /  0 mm
05:49 5.2 °F /  -14.9 °C -0.4 °F /  -18 °C 1010.7 in /  34222.3 hPa SSW 3.7 mph /  6 km/h 3.7 mph /  6 km/h 67 % 0.0 in /  0 mm
05:54 5.2 °F /  -14.9 °C -0.4 °F /  -18 °C 1010.7 in /  34222.3 hPa SW 3.7 mph /  6 km/h 3.7 mph /  6 km/h 67 % 0.0 in /  0 mm
05:59 5.2 °F /  -14.9 °C -0.4 °F /  -18 °C 1010.7 in /  34222.3 hPa West 1.9 mph /  3.1 km/h   67 % 0.0 in /  0 mm
06:04 5.2 °F /  -14.9 °C -0.4 °F /  -18 °C 1010.7 in /  34222.3 hPa West 1.9 mph /  3.1 km/h 1.9 mph /  3.1 km/h 67 % 0.0 in /  0 mm
06:09 5.2 °F /  -14.9 °C -0.4 °F /  -18 °C 1010.7 in /  34222.3 hPa Calm     67 % 0.0 in /  0 mm
06:14 5.2 °F /  -14.9 °C -0.2 °F /  -17.9 °C 1010.7 in /  34222.3 hPa Calm     68 % 0.0 in /  0 mm
06:19 5.1 °F /  -14.9 °C -0.3 °F /  -17.9 °C 1010.7 in /  34222.3 hPa NNE 3.7 mph /  6 km/h 3.7 mph /  6 km/h 68 % 0.0 in /  0 mm
06:24 5.1 °F /  -14.9 °C -0.3 °F /  -17.9 °C 1010.7 in /  34222.3 hPa NE 3.7 mph /  6 km/h 3.7 mph /  6 km/h 68 % 0.0 in /  0 mm
06:29 5.0 °F /  -15 °C -0.4 °F /  -18 °C 1010.7 in /  34222.3 hPa Calm     68 % 0.0 in /  0 mm
06:34 5.0 °F /  -15 °C -0.4 °F /  -18 °C 1010.7 in /  34222.3 hPa Calm     68 % 0.0 in /  0 mm
06:39 5.0 °F /  -15 °C -0.4 °F /  -18 °C 1010.7 in /  34222.3 hPa Calm     68 % 0.0 in /  0 mm
06:44 5.0 °F /  -15 °C -0.4 °F /  -18 °C 1011.7 in /  34256.2 hPa Calm     68 % 0.0 in /  0 mm
06:49 5.0 °F /  -15 °C -0.2 °F /  -17.9 °C 1011.7 in /  34256.2 hPa Calm     69 % 0.0 in /  0 mm
06:54 5.0 °F /  -15 °C -0.2 °F /  -17.9 °C 1011.7 in /  34256.2 hPa Calm     69 % 0.0 in /  0 mm
06:59 5.0 °F /  -15 °C -0.2 °F /  -17.9 °C 1011.7 in /  34256.2 hPa Calm     69 % 0.0 in /  0 mm
07:04 4.9 °F /  -15.1 °C -0.3 °F /  -17.9 °C 1011.7 in /  34256.2 hPa Calm     69 % 0.0 in /  0 mm
07:09 4.9 °F /  -15.1 °C -0.3 °F /  -17.9 °C 1011.7 in /  34256.2 hPa NE 3.7 mph /  6 km/h 3.7 mph /  6 km/h 69 % 0.0 in /  0 mm
07:14 4.9 °F /  -15.1 °C -0.5 °F /  -18.1 °C 1010.7 in /  34222.3 hPa NE 3.7 mph /  6 km/h 3.7 mph /  6 km/h 68 % 0.0 in /  0 mm
07:19 4.8 °F /  -15.1 °C -0.6 °F /  -18.1 °C 1010.7 in /  34222.3 hPa NW 3.7 mph /  6 km/h 3.7 mph /  6 km/h 68 % 0.0 in /  0 mm
07:24 4.8 °F /  -15.1 °C -0.6 °F /  -18.1 °C 1010.7 in /  34222.3 hPa NNW 3.7 mph /  6 km/h 3.7 mph /  6 km/h 68 % 0.0 in /  0 mm
07:29 4.7 °F /  -15.2 °C -0.7 °F /  -18.2 °C 1011.7 in /  34256.2 hPa ENE 5.6 mph /  9 km/h 5.6 mph /  9 km/h 68 % 0.0 in /  0 mm
07:34 4.7 °F /  -15.2 °C -0.7 °F /  -18.2 °C 1011.7 in /  34256.2 hPa ENE 3.7 mph /  6 km/h 3.7 mph /  6 km/h 68 % 0.0 in /  0 mm
07:39 4.7 °F /  -15.2 °C -0.7 °F /  -18.2 °C 1011.7 in /  34256.2 hPa ESE 3.7 mph /  6 km/h 3.7 mph /  6 km/h 68 % 0.0 in /  0 mm
07:44 4.7 °F /  -15.2 °C -0.9 °F /  -18.3 °C 1011.7 in /  34256.2 hPa NNE 5.6 mph /  9 km/h 5.6 mph /  9 km/h 67 % 0.0 in /  0 mm
07:49 4.7 °F /  -15.2 °C -0.9 °F /  -18.3 °C 1011.7 in /  34256.2 hPa NNW 7.4 mph /  11.9 km/h 7.4 mph /  11.9 km/h 67 % 0.0 in /  0 mm
07:54 4.7 °F /  -15.2 °C -0.9 °F /  -18.3 °C 1011.7 in /  34256.2 hPa NE 7.4 mph /  11.9 km/h 7.4 mph /  11.9 km/h 67 % 0.0 in /  0 mm
07:59 4.7 °F /  -15.2 °C -0.9 °F /  -18.3 °C 1011.7 in /  34256.2 hPa NNW 5.6 mph /  9 km/h 5.6 mph /  9 km/h 67 % 0.0 in /  0 mm
08:04 4.7 °F /  -15.2 °C -0.9 °F /  -18.3 °C 1011.7 in /  34256.2 hPa NNE 4.2 mph /  6.8 km/h 4.2 mph /  6.8 km/h 67 % 0.0 in /  0 mm
08:09 4.7 °F /  -15.2 °C -0.9 °F /  -18.3 °C 1011.7 in /  34256.2 hPa ESE 5.6 mph /  9 km/h 5.6 mph /  9 km/h 67 % 0.0 in /  0 mm
08:14 4.7 °F /  -15.2 °C -0.9 °F /  -18.3 °C 1010.7 in /  34222.3 hPa West 5.6 mph /  9 km/h 5.6 mph /  9 km/h 67 % 0.0 in /  0 mm
08:19 4.7 °F /  -15.2 °C -0.9 °F /  -18.3 °C 1010.7 in /  34222.3 hPa NE 5.6 mph /  9 km/h 5.6 mph /  9 km/h 67 % 0.0 in /  0 mm
08:24 4.7 °F /  -15.2 °C -0.9 °F /  -18.3 °C 1010.7 in /  34222.3 hPa SW 5.6 mph /  9 km/h 5.6 mph /  9 km/h 67 % 0.0 in /  0 mm
08:29 4.8 °F /  -15.1 °C -0.8 °F /  -18.2 °C 1011.7 in /  34256.2 hPa ENE 5.6 mph /  9 km/h 5.6 mph /  9 km/h 67 % 0.0 in /  0 mm
08:34 4.8 °F /  -15.1 °C -0.8 °F /  -18.2 °C 1011.7 in /  34256.2 hPa NNW 7.4 mph /  11.9 km/h 7.4 mph /  11.9 km/h 67 % 0.0 in /  0 mm
08:39 4.9 °F /  -15.1 °C -0.7 °F /  -18.2 °C 1011.7 in /  34256.2 hPa NE 7.9 mph /  12.7 km/h 7.9 mph /  12.7 km/h 67 % 0.0 in /  0 mm
08:44 4.9 °F /  -15.1 °C -0.7 °F /  -18.2 °C 1011.7 in /  34256.2 hPa ENE 5.6 mph /  9 km/h 5.6 mph /  9 km/h 67 % 0.0 in /  0 mm
08:49 5.0 °F /  -15 °C -0.6 °F /  -18.1 °C 1011.7 in /  34256.2 hPa NNE 3.9 mph /  6.3 km/h 3.9 mph /  6.3 km/h 67 % 0.0 in /  0 mm
08:54 5.1 °F /  -14.9 °C -0.6 °F /  -18.1 °C 1011.7 in /  34256.2 hPa ESE 7.4 mph /  11.9 km/h 7.4 mph /  11.9 km/h 67 % 0.0 in /  0 mm
08:59 5.2 °F /  -14.9 °C -0.4 °F /  -18 °C 1011.7 in /  34256.2 hPa ENE 5.6 mph /  9 km/h 5.6 mph /  9 km/h 67 % 0.0 in /  0 mm
09:04 5.2 °F /  -14.9 °C -0.4 °F /  -18 °C 1011.7 in /  34256.2 hPa NNE 5.6 mph /  9 km/h 5.6 mph /  9 km/h 67 % 0.0 in /  0 mm
09:09 5.3 °F /  -14.8 °C -0.3 °F /  -17.9 °C 1011.7 in /  34256.2 hPa NNW 7.4 mph /  11.9 km/h 7.4 mph /  11.9 km/h 67 % 0.0 in /  0 mm
09:14 5.3 °F /  -14.8 °C -0.3 °F /  -17.9 °C 1011.7 in /  34256.2 hPa ENE 5.6 mph /  9 km/h 5.6 mph /  9 km/h 67 % 0.0 in /  0 mm
09:19 5.5 °F /  -14.7 °C -0.2 °F /  -17.9 °C 1011.7 in /  34256.2 hPa NNE 3.7 mph /  6 km/h 3.7 mph /  6 km/h 67 % 0.0 in /  0 mm
09:24 5.5 °F /  -14.7 °C -0.2 °F /  -17.9 °C 1011.7 in /  34256.2 hPa ENE 7.4 mph /  11.9 km/h 7.4 mph /  11.9 km/h 67 % 0.0 in /  0 mm
09:29 5.6 °F /  -14.7 °C -0.1 °F /  -17.8 °C 1011.7 in /  34256.2 hPa NE 3.9 mph /  6.3 km/h 3.9 mph /  6.3 km/h 67 % 0.0 in /  0 mm
09:34 5.6 °F /  -14.7 °C -0.1 °F /  -17.8 °C 1011.7 in /  34256.2 hPa ENE 3.7 mph /  6 km/h 3.7 mph /  6 km/h 67 % 0.0 in /  0 mm
09:39 5.6 °F /  -14.7 °C -0.1 °F /  -17.8 °C 1011.7 in /  34256.2 hPa NNE 3.7 mph /  6 km/h 3.7 mph /  6 km/h 67 % 0.0 in /  0 mm
09:44 5.6 °F /  -14.7 °C -0.1 °F /  -17.8 °C 1011.7 in /  34256.2 hPa NNW 7.4 mph /  11.9 km/h 7.4 mph /  11.9 km/h 67 % 0.0 in /  0 mm
09:49 5.6 °F /  -14.7 °C -0.1 °F /  -17.8 °C 1011.7 in /  34256.2 hPa NNE 7.4 mph /  11.9 km/h 7.4 mph /  11.9 km/h 67 % 0.0 in /  0 mm
09:54 5.6 °F /  -14.7 °C -0.1 °F /  -17.8 °C 1011.7 in /  34256.2 hPa NNE 9.3 mph /  15 km/h 9.3 mph /  15 km/h 67 % 0.0 in /  0 mm
09:59 5.7 °F /  -14.6 °C 0.1 °F /  -17.7 °C 1011.7 in /  34256.2 hPa NNE 7.4 mph /  11.9 km/h 7.4 mph /  11.9 km/h 67 % 0.0 in /  0 mm
10:04 5.7 °F /  -14.6 °C 0.2 °F /  -17.7 °C 1011.7 in /  34256.2 hPa North 5.6 mph /  9 km/h 5.6 mph /  9 km/h 68 % 0.0 in /  0 mm
10:09 5.7 °F /  -14.6 °C 0.2 °F /  -17.7 °C 1011.7 in /  34256.2 hPa NNE 3.7 mph /  6 km/h 3.7 mph /  6 km/h 68 % 0.0 in /  0 mm
10:14 5.7 °F /  -14.6 °C 0.2 °F /  -17.7 °C 1011.7 in /  34256.2 hPa NNE 7.4 mph /  11.9 km/h 7.4 mph /  11.9 km/h 68 % 0.0 in /  0 mm
10:19 5.7 °F /  -14.6 °C 0.2 °F /  -17.7 °C 1011.7 in /  34256.2 hPa ENE 7.4 mph /  11.9 km/h 7.4 mph /  11.9 km/h 68 % 0.0 in /  0 mm
10:24 5.7 °F /  -14.6 °C 0.2 °F /  -17.7 °C 1011.7 in /  34256.2 hPa NE 3.9 mph /  6.3 km/h 3.9 mph /  6.3 km/h 68 % 0.0 in /  0 mm
10:30 5.7 °F /  -14.6 °C 0.2 °F /  -17.7 °C 1011.7 in /  34256.2 hPa NNE 9.3 mph /  15 km/h 9.3 mph /  15 km/h 68 % 0.0 in /  0 mm
10:34 5.6 °F /  -14.7 °C 0.2 °F /  -17.7 °C 1011.7 in /  34256.2 hPa ENE 7.4 mph /  11.9 km/h 7.4 mph /  11.9 km/h 68 % 0.0 in /  0 mm
10:39 5.6 °F /  -14.7 °C 0.2 °F /  -17.7 °C 1011.7 in /  34256.2 hPa ENE 3.9 mph /  6.3 km/h 4.7 mph /  7.6 km/h 68 % 0.0 in /  0 mm
10:44 5.6 °F /  -14.7 °C 0.3 °F /  -17.6 °C 1012.8 in /  34293.4 hPa ENE 7.9 mph /  12.7 km/h 7.9 mph /  12.7 km/h 69 % 0.0 in /  0 mm
10:49 5.5 °F /  -14.7 °C 0.3 °F /  -17.6 °C 1012.8 in /  34293.4 hPa NNE 9.3 mph /  15 km/h 9.3 mph /  15 km/h 69 % 0.0 in /  0 mm
10:54 5.5 °F /  -14.7 °C 0.3 °F /  -17.6 °C 1012.8 in /  34293.4 hPa NNE 11.1 mph /  17.9 km/h 11.1 mph /  17.9 km/h 69 % 0.0 in /  0 mm
10:59 5.5 °F /  -14.7 °C 0.4 °F /  -17.6 °C 1012.8 in /  34293.4 hPa NNE 7.4 mph /  11.9 km/h 7.4 mph /  11.9 km/h 70 % 0.0 in /  0 mm
11:04 5.5 °F /  -14.7 °C 0.4 °F /  -17.6 °C 1012.8 in /  34293.4 hPa NNE 11.1 mph /  17.9 km/h 11.1 mph /  17.9 km/h 70 % 0.0 in /  0 mm
11:09 5.5 °F /  -14.7 °C 0.4 °F /  -17.6 °C 1012.8 in /  34293.4 hPa North 7.4 mph /  11.9 km/h 7.4 mph /  11.9 km/h 70 % 0.0 in /  0 mm
11:15 5.6 °F /  -14.7 °C 0.6 °F /  -17.4 °C 1011.7 in /  34256.2 hPa ENE 5.6 mph /  9 km/h 5.6 mph /  9 km/h 70 % 0.0 in /  0 mm
11:20 5.6 °F /  -14.7 °C 0.6 °F /  -17.4 °C 1011.7 in /  34256.2 hPa NNE 6.1 mph /  9.8 km/h 6.1 mph /  9.8 km/h 70 % 0.0 in /  0 mm
11:25 5.6 °F /  -14.7 °C 0.8 °F /  -17.3 °C 1011.7 in /  34256.2 hPa NNE 9.3 mph /  15 km/h 9.3 mph /  15 km/h 71 % 0.0 in /  0 mm
11:30 5.6 °F /  -14.7 °C 0.8 °F /  -17.3 °C 1011.7 in /  34256.2 hPa NNE 7.4 mph /  11.9 km/h 7.4 mph /  11.9 km/h 71 % 0.0 in /  0 mm
11:35 5.6 °F /  -14.7 °C 0.8 °F /  -17.3 °C 1011.7 in /  34256.2 hPa NNE 4.2 mph /  6.8 km/h 4.2 mph /  6.8 km/h 71 % 0.0 in /  0 mm
11:40 5.5 °F /  -14.7 °C 0.8 °F /  -17.3 °C 1011.7 in /  34256.2 hPa NE 9.3 mph /  15 km/h 9.3 mph /  15 km/h 72 % 0.0 in /  0 mm
11:45 5.6 °F /  -14.7 °C 0.9 °F /  -17.3 °C 1012.8 in /  34293.4 hPa NE 5.6 mph /  9 km/h 5.6 mph /  9 km/h 72 % 0.0 in /  0 mm
11:50 5.6 °F /  -14.7 °C 0.9 °F /  -17.3 °C 1012.8 in /  34293.4 hPa ENE 7.4 mph /  11.9 km/h 7.4 mph /  11.9 km/h 72 % 0.0 in /  0 mm
11:55 5.5 °F /  -14.7 °C 1.1 °F /  -17.2 °C 1012.8 in /  34293.4 hPa NNE 5.6 mph /  9 km/h 5.6 mph /  9 km/h 73 % 0.0 in /  0 mm
12:00 5.5 °F /  -14.7 °C 1.1 °F /  -17.2 °C 1011.7 in /  34256.2 hPa NE 6.4 mph /  10.3 km/h 6.4 mph /  10.3 km/h 73 % 0.0 in /  0 mm
12:05 5.6 °F /  -14.7 °C 1.1 °F /  -17.2 °C 1011.7 in /  34256.2 hPa NNE 5.6 mph /  9 km/h 5.6 mph /  9 km/h 73 % 0.0 in /  0 mm
12:10 5.5 °F /  -14.7 °C 1.2 °F /  -17.1 °C 1011.7 in /  34256.2 hPa NNE 3.9 mph /  6.3 km/h 3.9 mph /  6.3 km/h 74 % 0.0 in /  0 mm
12:15 5.5 °F /  -14.7 °C 1.2 °F /  -17.1 °C 1011.7 in /  34256.2 hPa NE 4.2 mph /  6.8 km/h 4.2 mph /  6.8 km/h 74 % 0.0 in /  0 mm
12:20 5.5 °F /  -14.7 °C 1.4 °F /  -17 °C 1011.7 in /  34256.2 hPa Calm     75 % 0.0 in /  0 mm
12:25 5.6 °F /  -14.7 °C 1.5 °F /  -16.9 °C 1011.7 in /  34256.2 hPa NNE 3.7 mph /  6 km/h 3.7 mph /  6 km/h 75 % 0.0 in /  0 mm
12:30 5.6 °F /  -14.7 °C 1.7 °F /  -16.8 °C 1012.8 in /  34293.4 hPa NE 1.9 mph /  3.1 km/h   76 % 0.0 in /  0 mm
12:35 5.6 °F /  -14.7 °C 1.7 °F /  -16.8 °C 1012.8 in /  34293.4 hPa NNE 3.7 mph /  6 km/h 3.7 mph /  6 km/h 76 % 0.0 in /  0 mm
12:40 5.7 °F /  -14.6 °C 1.8 °F /  -16.8 °C 1012.8 in /  34293.4 hPa NNE 1.9 mph /  3.1 km/h 2.3 mph /  3.7 km/h 76 % 0.0 in /  0 mm
12:45 5.7 °F /  -14.6 °C 2.0 °F /  -16.7 °C 1011.7 in /  34256.2 hPa ENE 3.7 mph /  6 km/h   77 % 0.0 in /  0 mm
12:50 5.7 °F /  -14.6 °C 2.0 °F /  -16.7 °C 1011.7 in /  34256.2 hPa NNE 4.2 mph /  6.8 km/h 4.2 mph /  6.8 km/h 77 % 0.0 in /  0 mm
12:55 5.7 °F /  -14.6 °C 2.0 °F /  -16.7 °C 1011.7 in /  34256.2 hPa North 5.0 mph /  8 km/h 5.0 mph /  8 km/h 77 % 1.0 in /  25.4 mm
13:00 5.7 °F /  -14.6 °C 2.0 °F /  -16.7 °C 1011.7 in /  34256.2 hPa ENE 3.7 mph /  6 km/h 3.7 mph /  6 km/h 77 % 1.0 in /  25.4 mm
13:05 5.7 °F /  -14.6 °C 2.0 °F /  -16.7 °C 1011.7 in /  34256.2 hPa NNE 7.4 mph /  11.9 km/h 7.4 mph /  11.9 km/h 77 % 1.0 in /  25.4 mm
13:10 5.7 °F /  -14.6 °C 2.0 °F /  -16.7 °C 1011.7 in /  34256.2 hPa NNE 7.4 mph /  11.9 km/h 7.4 mph /  11.9 km/h 77 % 1.0 in /  25.4 mm
13:15 5.7 °F /  -14.6 °C 2.0 °F /  -16.7 °C 1011.7 in /  34256.2 hPa NNE 5.6 mph /  9 km/h 5.6 mph /  9 km/h 77 % 1.0 in /  25.4 mm
13:20 5.7 °F /  -14.6 °C 2.2 °F /  -16.6 °C 1011.7 in /  34256.2 hPa ENE 5.6 mph /  9 km/h 5.6 mph /  9 km/h 78 % 1.0 in /  25.4 mm
13:25 5.6 °F /  -14.7 °C 2.1 °F /  -16.6 °C 1011.7 in /  34256.2 hPa NNE 7.4 mph /  11.9 km/h 7.4 mph /  11.9 km/h 78 % 1.0 in /  25.4 mm
13:30 5.6 °F /  -14.7 °C 2.1 °F /  -16.6 °C 1010.7 in /  34222.3 hPa NNE 5.6 mph /  9 km/h 5.6 mph /  9 km/h 78 % 1.0 in /  25.4 mm
13:35 5.6 °F /  -14.7 °C 2.2 °F /  -16.6 °C 1010.7 in /  34222.3 hPa NNE 4.2 mph /  6.8 km/h 4.2 mph /  6.8 km/h 79 % 2.0 in /  50.8 mm
13:40 5.6 °F /  -14.7 °C 2.2 °F /  -16.6 °C 1010.7 in /  34222.3 hPa ENE 5.6 mph /  9 km/h 5.6 mph /  9 km/h 79 % 2.0 in /  50.8 mm
13:45 5.7 °F /  -14.6 °C 2.3 °F /  -16.5 °C 1011.7 in /  34256.2 hPa NNE 5.6 mph /  9 km/h 5.6 mph /  9 km/h 79 % 2.0 in /  50.8 mm
13:50 5.7 °F /  -14.6 °C 2.3 °F /  -16.5 °C 1011.7 in /  34256.2 hPa NNE 5.6 mph /  9 km/h 5.6 mph /  9 km/h 79 % 2.0 in /  50.8 mm
13:55 5.7 °F /  -14.6 °C 2.3 °F /  -16.5 °C 1011.7 in /  34256.2 hPa NNE 5.8 mph /  9.3 km/h 5.8 mph /  9.3 km/h 79 % 1.0 in /  25.4 mm
14:00 5.8 °F /  -14.6 °C 2.6 °F /  -16.3 °C 1011.7 in /  34256.2 hPa NE 5.6 mph /  9 km/h 5.6 mph /  9 km/h 80 % 1.0 in /  25.4 mm
14:05 5.8 °F /  -14.6 °C 2.6 °F /  -16.3 °C 1011.7 in /  34256.2 hPa NNE 9.3 mph /  15 km/h 9.3 mph /  15 km/h 80 % 1.0 in /  25.4 mm
14:10 5.9 °F /  -14.5 °C 2.7 °F /  -16.3 °C 1011.7 in /  34256.2 hPa NNE 5.6 mph /  9 km/h 5.8 mph /  9.3 km/h 80 % 1.0 in /  25.4 mm
14:15 5.9 °F /  -14.5 °C 2.7 °F /  -16.3 °C 1011.7 in /  34256.2 hPa NNE 7.4 mph /  11.9 km/h 7.4 mph /  11.9 km/h 80 % 1.0 in /  25.4 mm
14:20 6.0 °F /  -14.4 °C 2.8 °F /  -16.2 °C 1011.7 in /  34256.2 hPa NNE 5.6 mph /  9 km/h 5.6 mph /  9 km/h 80 % 2.0 in /  50.8 mm
14:25 6.0 °F /  -14.4 °C 2.8 °F /  -16.2 °C 1011.7 in /  34256.2 hPa NE 7.4 mph /  11.9 km/h 7.4 mph /  11.9 km/h 80 % 2.0 in /  50.8 mm
14:30 6.0 °F /  -14.4 °C 2.8 °F /  -16.2 °C 1010.7 in /  34222.3 hPa NNE 6.4 mph /  10.3 km/h 6.4 mph /  10.3 km/h 80 % 2.0 in /  50.8 mm
14:35 6.0 °F /  -14.4 °C 2.8 °F /  -16.2 °C 1010.7 in /  34222.3 hPa NE 9.5 mph /  15.3 km/h 10.0 mph /  16.1 km/h 80 % 1.0 in /  25.4 mm
14:40 6.0 °F /  -14.4 °C 2.8 °F /  -16.2 °C 1010.7 in /  34222.3 hPa NNE 9.0 mph /  14.5 km/h 9.0 mph /  14.5 km/h 80 % 1.0 in /  25.4 mm
14:45 6.0 °F /  -14.4 °C 2.8 °F /  -16.2 °C 1011.7 in /  34256.2 hPa NNE 7.4 mph /  11.9 km/h 7.4 mph /  11.9 km/h 80 % 2.0 in /  50.8 mm
14:50 6.0 °F /  -14.4 °C 3.0 °F /  -16.1 °C 1011.7 in /  34256.2 hPa NNE 5.6 mph /  9 km/h 5.6 mph /  9 km/h 81 % 2.0 in /  50.8 mm
14:55 6.0 °F /  -14.4 °C 3.0 °F /  -16.1 °C 1011.7 in /  34256.2 hPa NNE 5.6 mph /  9 km/h 5.6 mph /  9 km/h 81 % 2.0 in /  50.8 mm
15:00 6.1 °F /  -14.4 °C 3.1 °F /  -16.1 °C 1010.0 in /  34198.6 hPa ENE 5.6 mph /  9 km/h 5.6 mph /  9 km/h 81 % 2.0 in /  50.8 mm
15:05 6.1 °F /  -14.4 °C 3.1 °F /  -16.1 °C 1010.0 in /  34198.6 hPa NNE 7.4 mph /  11.9 km/h 7.4 mph /  11.9 km/h 81 % 2.0 in /  50.8 mm
15:10 6.1 °F /  -14.4 °C 3.1 °F /  -16.1 °C 1010.0 in /  34198.6 hPa ENE 5.0 mph /  8 km/h 5.0 mph /  8 km/h 81 % 2.0 in /  50.8 mm
15:15 6.0 °F /  -14.4 °C 3.0 °F /  -16.1 °C 1010.7 in /  34222.3 hPa NNE 9.3 mph /  15 km/h 9.3 mph /  15 km/h 81 % 3.0 in /  76.2 mm
15:20 6.0 °F /  -14.4 °C 3.0 °F /  -16.1 °C 1010.7 in /  34222.3 hPa East 7.4 mph /  11.9 km/h 7.4 mph /  11.9 km/h 81 % 2.0 in /  50.8 mm
15:25 6.0 °F /  -14.4 °C 3.0 °F /  -16.1 °C 1010.7 in /  34222.3 hPa NNE 6.4 mph /  10.3 km/h 6.4 mph /  10.3 km/h 81 % 2.0 in /  50.8 mm
15:30 6.0 °F /  -14.4 °C 3.0 °F /  -16.1 °C 1010.7 in /  34222.3 hPa ENE 9.3 mph /  15 km/h 9.3 mph /  15 km/h 81 % 2.0 in /  50.8 mm
15:35 6.0 °F /  -14.4 °C 3.0 °F /  -16.1 °C 1010.7 in /  34222.3 hPa NNE 9.3 mph /  15 km/h 9.3 mph /  15 km/h 81 % 2.0 in /  50.8 mm
15:40 6.0 °F /  -14.4 °C 3.0 °F /  -16.1 °C 1010.7 in /  34222.3 hPa NE 7.6 mph /  12.2 km/h 7.6 mph /  12.2 km/h 81 % 2.0 in /  50.8 mm
15:45 6.0 °F /  -14.4 °C 3.0 °F /  -16.1 °C 1010.7 in /  34222.3 hPa ENE 9.5 mph /  15.3 km/h 9.5 mph /  15.3 km/h 81 % 1.0 in /  25.4 mm
15:50 6.0 °F /  -14.4 °C 3.0 °F /  -16.1 °C 1010.7 in /  34222.3 hPa NNE 10.0 mph /  16.1 km/h 10.0 mph /  16.1 km/h 81 % 1.0 in /  25.4 mm
15:55 6.0 °F /  -14.4 °C 3.0 °F /  -16.1 °C 1010.7 in /  34222.3 hPa NNE 9.3 mph /  15 km/h 9.3 mph /  15 km/h 81 % 2.3 in /  58.42 mm
16:00 6.0 °F /  -14.4 °C 3.0 °F /  -16.1 °C 1010.7 in /  34222.3 hPa NNE 9.3 mph /  15 km/h 9.3 mph /  15 km/h 81 % 2.3 in /  58.42 mm
16:05 6.0 °F /  -14.4 °C 3.2 °F /  -16 °C 1010.7 in /  34222.3 hPa ENE 9.3 mph /  15 km/h 9.3 mph /  15 km/h 82 % 2.3 in /  58.42 mm
16:10 6.0 °F /  -14.4 °C 3.2 °F /  -16 °C 1010.7 in /  34222.3 hPa ENE 8.7 mph /  14 km/h 8.7 mph /  14 km/h 82 % 3.3 in /  83.82 mm
16:15 5.9 °F /  -14.5 °C 3.1 °F /  -16.1 °C 1011.7 in /  34256.2 hPa NNE 10.0 mph /  16.1 km/h 10.0 mph /  16.1 km/h 82 % 2.3 in /  58.42 mm
16:20 5.9 °F /  -14.5 °C 3.1 °F /  -16.1 °C 1011.7 in /  34256.2 hPa NNE 7.4 mph /  11.9 km/h 7.4 mph /  11.9 km/h 82 % 3.3 in /  83.82 mm
16:25 5.9 °F /  -14.5 °C 3.1 °F /  -16.1 °C 1011.7 in /  34256.2 hPa ENE 7.4 mph /  11.9 km/h 7.4 mph /  11.9 km/h 82 % 3.3 in /  83.82 mm
16:30 5.9 °F /  -14.5 °C 3.2 °F /  -16 °C 1011.7 in /  34256.2 hPa ENE 5.6 mph /  9 km/h 5.6 mph /  9 km/h 83 % 4.3 in /  109.22 mm
16:35 5.9 °F /  -14.5 °C 3.2 °F /  -16 °C 1011.7 in /  34256.2 hPa ENE 2.3 mph /  3.7 km/h   83 % 5.3 in /  134.62 mm
16:40 5.9 °F /  -14.5 °C 3.2 °F /  -16 °C 1011.7 in /  34256.2 hPa ESE 3.7 mph /  6 km/h 4.2 mph /  6.8 km/h 83 % 5.3 in /  134.62 mm
16:45 5.9 °F /  -14.5 °C 3.2 °F /  -16 °C 1011.7 in /  34256.2 hPa NNE 7.4 mph /  11.9 km/h 7.4 mph /  11.9 km/h 83 % 6.3 in /  160.02 mm
16:50 5.9 °F /  -14.5 °C 3.2 °F /  -16 °C 1011.7 in /  34256.2 hPa ENE 7.4 mph /  11.9 km/h 7.4 mph /  11.9 km/h 83 % 6.3 in /  160.02 mm
16:55 5.9 °F /  -14.5 °C 3.2 °F /  -16 °C 1011.7 in /  34256.2 hPa East 7.4 mph /  11.9 km/h 7.4 mph /  11.9 km/h 83 % 5.1 in /  129.54 mm
17:00 5.9 °F /  -14.5 °C 3.2 °F /  -16 °C 1011.7 in /  34256.2 hPa East 5.6 mph /  9 km/h 5.6 mph /  9 km/h 83 % 6.1 in /  154.94 mm
17:05 5.9 °F /  -14.5 °C 3.2 °F /  -16 °C 1011.7 in /  34256.2 hPa ESE 5.6 mph /  9 km/h 5.6 mph /  9 km/h 83 % 6.1 in /  154.94 mm
17:10 5.9 °F /  -14.5 °C 3.2 °F /  -16 °C 1011.7 in /  34256.2 hPa ESE 1.9 mph /  3.1 km/h   83 % 5.1 in /  129.54 mm
17:15 6.0 °F /  -14.4 °C 3.5 °F /  -15.8 °C 1011.7 in /  34256.2 hPa ENE 3.5 mph /  5.6 km/h 3.5 mph /  5.6 km/h 84 % 5.3 in /  134.62 mm
17:20 5.9 °F /  -14.5 °C 3.4 °F /  -15.9 °C 1011.7 in /  34256.2 hPa Calm     84 % 5.3 in /  134.62 mm
17:25 5.9 °F /  -14.5 °C 3.4 °F /  -15.9 °C 1011.7 in /  34256.2 hPa ESE 7.4 mph /  11.9 km/h 7.4 mph /  11.9 km/h 84 % 5.3 in /  134.62 mm
17:30 5.9 °F /  -14.5 °C 3.4 °F /  -15.9 °C 1011.7 in /  34256.2 hPa NNE 3.9 mph /  6.3 km/h 3.9 mph /  6.3 km/h 84 % 4.3 in /  109.22 mm
17:35 5.8 °F /  -14.6 °C 3.3 °F /  -15.9 °C 1011.7 in /  34256.2 hPa ESE 9.7 mph /  15.6 km/h 9.7 mph /  15.6 km/h 84 % 3.3 in /  83.82 mm
17:40 5.8 °F /  -14.6 °C 3.1 °F /  -16.1 °C 1011.7 in /  34256.2 hPa East 5.6 mph /  9 km/h 5.6 mph /  9 km/h 83 % 4.3 in /  109.22 mm
17:45 5.7 °F /  -14.6 °C 3.1 °F /  -16.1 °C 1011.7 in /  34256.2 hPa ENE 7.4 mph /  11.9 km/h 7.4 mph /  11.9 km/h 83 % 3.3 in /  83.82 mm
17:50 5.6 °F /  -14.7 °C 2.9 °F /  -16.2 °C 1011.7 in /  34256.2 hPa NE 5.8 mph /  9.3 km/h 5.8 mph /  9.3 km/h 83 % 4.3 in /  109.22 mm
17:55 5.6 °F /  -14.7 °C 3.1 °F /  -16.1 °C 1011.7 in /  34256.2 hPa North 5.8 mph /  9.3 km/h 5.8 mph /  9.3 km/h 84 % 4.3 in /  109.22 mm
18:00 5.5 °F /  -14.7 °C 3.0 °F /  -16.1 °C 1011.7 in /  34256.2 hPa NE 3.9 mph /  6.3 km/h 3.9 mph /  6.3 km/h 84 % 3.3 in /  83.82 mm
18:05 5.5 °F /  -14.7 °C 3.0 °F /  -16.1 °C 1011.7 in /  34256.2 hPa NNE 3.7 mph /  6 km/h 3.7 mph /  6 km/h 84 % 3.3 in /  83.82 mm
18:10 5.5 °F /  -14.7 °C 3.0 °F /  -16.1 °C 1011.7 in /  34256.2 hPa NNE 5.6 mph /  9 km/h 5.6 mph /  9 km/h 84 % 3.3 in /  83.82 mm
18:15 5.5 °F /  -14.7 °C 3.0 °F /  -16.1 °C 1011.7 in /  34256.2 hPa ENE 1.9 mph /  3.1 km/h 2.6 mph /  4.2 km/h 84 % 2.0 in /  50.8 mm
18:20 5.4 °F /  -14.8 °C 2.9 °F /  -16.2 °C 1011.7 in /  34256.2 hPa ENE 2.3 mph /  3.7 km/h 2.3 mph /  3.7 km/h 84 % 2.0 in /  50.8 mm
18:25 5.4 °F /  -14.8 °C 2.9 °F /  -16.2 °C 1011.7 in /  34256.2 hPa ENE 3.7 mph /  6 km/h 3.7 mph /  6 km/h 84 % 2.0 in /  50.8 mm
18:30 5.4 °F /  -14.8 °C 2.9 °F /  -16.2 °C 1010.7 in /  34222.3 hPa NNE 5.8 mph /  9.3 km/h 5.8 mph /  9.3 km/h 84 % 2.0 in /  50.8 mm
18:35 5.4 °F /  -14.8 °C 2.9 °F /  -16.2 °C 1010.7 in /  34222.3 hPa ENE 7.4 mph /  11.9 km/h 7.4 mph /  11.9 km/h 84 % 2.0 in /  50.8 mm
18:40 5.4 °F /  -14.8 °C 2.9 °F /  -16.2 °C 1010.7 in /  34222.3 hPa NE 5.6 mph /  9 km/h 5.6 mph /  9 km/h 84 % 1.0 in /  25.4 mm
18:45 5.3 °F /  -14.8 °C 2.7 °F /  -16.3 °C 1011.7 in /  34256.2 hPa ENE 5.6 mph /  9 km/h 5.6 mph /  9 km/h 83 % 1.0 in /  25.4 mm
18:50 5.3 °F /  -14.8 °C 2.7 °F /  -16.3 °C 1011.7 in /  34256.2 hPa NE 7.4 mph /  11.9 km/h 7.4 mph /  11.9 km/h 83 % 0.0 in /  0 mm
18:55 5.3 °F /  -14.8 °C 2.7 °F /  -16.3 °C 1011.7 in /  34256.2 hPa NE 7.4 mph /  11.9 km/h 7.4 mph /  11.9 km/h 83 % 0.0 in /  0 mm
19:00 5.3 °F /  -14.8 °C 2.7 °F /  -16.3 °C 1010.0 in /  34198.6 hPa NNE 9.3 mph /  15 km/h 9.3 mph /  15 km/h 83 % 0.0 in /  0 mm
19:05 5.3 °F /  -14.8 °C 2.7 °F /  -16.3 °C 1010.0 in /  34198.6 hPa NNE 9.3 mph /  15 km/h 9.3 mph /  15 km/h 83 % 0.0 in /  0 mm
19:10 5.3 °F /  -14.8 °C 2.7 °F /  -16.3 °C 1010.0 in /  34198.6 hPa NE 7.4 mph /  11.9 km/h 7.4 mph /  11.9 km/h 83 % 0.0 in /  0 mm
19:15 5.3 °F /  -14.8 °C 2.7 °F /  -16.3 °C 1010.7 in /  34222.3 hPa ENE 9.3 mph /  15 km/h 9.3 mph /  15 km/h 83 % 0.0 in /  0 mm
19:20 5.3 °F /  -14.8 °C 2.8 °F /  -16.2 °C 1010.7 in /  34222.3 hPa NE 7.4 mph /  11.9 km/h 7.4 mph /  11.9 km/h 84 % 0.0 in /  0 mm
19:25 5.3 °F /  -14.8 °C 2.8 °F /  -16.2 °C 1010.7 in /  34222.3 hPa NNE 5.6 mph /  9 km/h 6.1 mph /  9.8 km/h 84 % 0.0 in /  0 mm
19:30 5.3 °F /  -14.8 °C 2.8 °F /  -16.2 °C 1010.7 in /  34222.3 hPa NNE 5.6 mph /  9 km/h 5.6 mph /  9 km/h 84 % 0.0 in /  0 mm
19:35 5.3 °F /  -14.8 °C 2.8 °F /  -16.2 °C 1010.7 in /  34222.3 hPa NNE 5.6 mph /  9 km/h 5.6 mph /  9 km/h 84 % 0.0 in /  0 mm
19:40 5.4 °F /  -14.8 °C 2.9 °F /  -16.2 °C 1010.7 in /  34222.3 hPa NNE 4.7 mph /  7.6 km/h 4.7 mph /  7.6 km/h 84 % 4.3 in /  109.22 mm
19:45 5.4 °F /  -14.8 °C 2.9 °F /  -16.2 °C 1010.7 in /  34222.3 hPa NNE 5.6 mph /  9 km/h 5.6 mph /  9 km/h 84 % 4.3 in /  109.22 mm
19:50 5.4 °F /  -14.8 °C 2.9 °F /  -16.2 °C 1010.7 in /  34222.3 hPa NE 3.7 mph /  6 km/h 3.7 mph /  6 km/h 84 % 4.3 in /  109.22 mm
19:55 5.3 °F /  -14.8 °C 2.8 °F /  -16.2 °C 1010.7 in /  34222.3 hPa NNE 5.6 mph /  9 km/h 5.6 mph /  9 km/h 84 % 4.3 in /  109.22 mm
20:00 5.3 °F /  -14.8 °C 2.8 °F /  -16.2 °C 1010.7 in /  34222.3 hPa NNE 5.6 mph /  9 km/h 5.6 mph /  9 km/h 84 % 5.1 in /  129.54 mm
20:05 5.3 °F /  -14.8 °C 2.8 °F /  -16.2 °C 1010.7 in /  34222.3 hPa NE 3.7 mph /  6 km/h 3.7 mph /  6 km/h 84 % 5.1 in /  129.54 mm
20:10 5.2 °F /  -14.9 °C 2.7 °F /  -16.3 °C 1010.7 in /  34222.3 hPa NE 5.6 mph /  9 km/h 5.6 mph /  9 km/h 84 % 5.1 in /  129.54 mm
20:15 5.2 °F /  -14.9 °C 2.7 °F /  -16.3 °C 1010.7 in /  34222.3 hPa NE 3.7 mph /  6 km/h 4.2 mph /  6.8 km/h 84 % 5.1 in /  129.54 mm
20:20 5.2 °F /  -14.9 °C 2.7 °F /  -16.3 °C 1010.7 in /  34222.3 hPa Calm     84 % 5.1 in /  129.54 mm
20:25 5.1 °F /  -14.9 °C 2.6 °F /  -16.3 °C 1010.7 in /  34222.3 hPa NNE 4.2 mph /  6.8 km/h   84 % 5.1 in /  129.54 mm
20:30 5.1 °F /  -14.9 °C 2.6 °F /  -16.3 °C 1010.0 in /  34198.6 hPa ENE 3.7 mph /  6 km/h 3.7 mph /  6 km/h 84 % 5.1 in /  129.54 mm
20:35 5.0 °F /  -15 °C 2.5 °F /  -16.4 °C 1010.0 in /  34198.6 hPa NNE 4.2 mph /  6.8 km/h 4.2 mph /  6.8 km/h 84 % 5.1 in /  129.54 mm
20:40 5.0 °F /  -15 °C 2.5 °F /  -16.4 °C 1010.0 in /  34198.6 hPa NNE 3.7 mph /  6 km/h 3.7 mph /  6 km/h 84 % 0.8 in /  20.32 mm
20:45 5.0 °F /  -15 °C 2.5 °F /  -16.4 °C 1010.0 in /  34198.6 hPa North 3.7 mph /  6 km/h 3.7 mph /  6 km/h 84 % 0.8 in /  20.32 mm
20:50 4.9 °F /  -15.1 °C 2.4 °F /  -16.4 °C 1010.0 in /  34198.6 hPa NNE 5.6 mph /  9 km/h 5.6 mph /  9 km/h 84 % 0.8 in /  20.32 mm
20:55 4.8 °F /  -15.1 °C 2.3 °F /  -16.5 °C 1010.0 in /  34198.6 hPa NNE 5.6 mph /  9 km/h 5.6 mph /  9 km/h 84 % 0.8 in /  20.32 mm
21:00 4.8 °F /  -15.1 °C 2.3 °F /  -16.5 °C 1010.0 in /  34198.6 hPa NE 6.1 mph /  9.8 km/h 6.1 mph /  9.8 km/h 84 % 0.0 in /  0 mm
21:05 4.8 °F /  -15.1 °C 2.3 °F /  -16.5 °C 1010.0 in /  34198.6 hPa NNE 7.4 mph /  11.9 km/h 7.4 mph /  11.9 km/h 84 % 0.0 in /  0 mm
21:10 4.8 °F /  -15.1 °C 2.3 °F /  -16.5 °C 1010.0 in /  34198.6 hPa NE 5.6 mph /  9 km/h   84 % 0.0 in /  0 mm
21:15 4.8 °F /  -15.1 °C 2.3 °F /  -16.5 °C 1010.0 in /  34198.6 hPa NE 5.6 mph /  9 km/h 5.6 mph /  9 km/h 84 % 0.0 in /  0 mm
21:20 4.7 °F /  -15.2 °C 2.2 °F /  -16.6 °C 1010.0 in /  34198.6 hPa NNE 3.9 mph /  6.3 km/h 3.9 mph /  6.3 km/h 84 % 0.0 in /  0 mm
21:25 4.7 °F /  -15.2 °C 2.2 °F /  -16.6 °C 1010.0 in /  34198.6 hPa NNE 3.7 mph /  6 km/h   84 % 0.0 in /  0 mm
21:30 4.0 °F /  -15.6 °C 1.9 °F /  -16.7 °C 1008.0 in /  34130.9 hPa NNE 1.6 mph /  2.6 km/h 6.4 mph /  10.3 km/h 86 % 0.0 in /  0 mm
21:31 4.7 °F /  -15.2 °C 2.2 °F /  -16.6 °C 1010.7 in /  34222.3 hPa NNE 3.7 mph /  6 km/h 3.7 mph /  6 km/h 84 % 0.0 in /  0 mm
21:36 4.7 °F /  -15.2 °C 2.2 °F /  -16.6 °C 1010.7 in /  34222.3 hPa NNE 3.7 mph /  6 km/h 3.7 mph /  6 km/h 84 % 0.0 in /  0 mm
21:40 4.1 °F /  -15.5 °C 1.9 °F /  -16.7 °C 1008.0 in /  34130.9 hPa NNE 3.2 mph /  5.1 km/h 8.0 mph /  12.9 km/h 86 % 0.0 in /  0 mm
21:41 4.7 °F /  -15.2 °C 2.4 °F /  -16.4 °C 1010.7 in /  34222.3 hPa NNE 1.9 mph /  3.1 km/h 1.9 mph /  3.1 km/h 85 % 0.0 in /  0 mm
21:46 4.7 °F /  -15.2 °C 2.4 °F /  -16.4 °C 1010.7 in /  34222.3 hPa NNE 3.7 mph /  6 km/h 3.7 mph /  6 km/h 85 % 0.0 in /  0 mm
21:50 4.4 °F /  -15.3 °C 2.4 °F /  -16.4 °C 1008.0 in /  34130.9 hPa NE 3.2 mph /  5.1 km/h 6.4 mph /  10.3 km/h 87 % 0.0 in /  0 mm
21:51 4.7 °F /  -15.2 °C 2.4 °F /  -16.4 °C 1010.7 in /  34222.3 hPa NE 7.4 mph /  11.9 km/h 7.4 mph /  11.9 km/h 85 % 0.0 in /  0 mm
21:56 4.7 °F /  -15.2 °C 2.4 °F /  -16.4 °C 1010.7 in /  34222.3 hPa NNE 3.7 mph /  6 km/h   85 % 0.0 in /  0 mm
22:00 4.5 °F /  -15.3 °C 2.5 °F /  -16.4 °C 1008.0 in /  34130.9 hPa NE 3.2 mph /  5.1 km/h 4.8 mph /  7.7 km/h 87 % 0.0 in /  0 mm
22:01 4.6 °F /  -15.2 °C 2.3 °F /  -16.5 °C 1010.7 in /  34222.3 hPa NE 6.1 mph /  9.8 km/h 6.1 mph /  9.8 km/h 85 % 0.0 in /  0 mm
22:06 4.6 °F /  -15.2 °C 2.3 °F /  -16.5 °C 1010.7 in /  34222.3 hPa NE 5.6 mph /  9 km/h 5.6 mph /  9 km/h 85 % 0.0 in /  0 mm
22:10 4.5 °F /  -15.3 °C 2.5 °F /  -16.4 °C 1008.0 in /  34130.9 hPa NE 1.6 mph /  2.6 km/h 3.2 mph /  5.1 km/h 87 % 0.0 in /  0 mm
22:11 4.6 °F /  -15.2 °C 2.3 °F /  -16.5 °C 1010.7 in /  34222.3 hPa NNE 3.7 mph /  6 km/h 3.7 mph /  6 km/h 85 % 0.0 in /  0 mm
22:16 4.6 °F /  -15.2 °C 2.3 °F /  -16.5 °C 1010.7 in /  34222.3 hPa ENE 3.7 mph /  6 km/h 3.7 mph /  6 km/h 85 % 0.0 in /  0 mm
22:20 4.4 °F /  -15.3 °C 2.4 °F /  -16.4 °C 1008.0 in /  34130.9 hPa NNE 4.8 mph /  7.7 km/h 4.8 mph /  7.7 km/h 87 % 0.0 in /  0 mm
22:21 4.6 °F /  -15.2 °C 2.3 °F /  -16.5 °C 1010.7 in /  34222.3 hPa ENE 1.9 mph /  3.1 km/h   85 % 0.0 in /  0 mm
22:26 4.7 °F /  -15.2 °C 2.4 °F /  -16.4 °C 1010.7 in /  34222.3 hPa NNE 2.3 mph /  3.7 km/h   85 % 4.3 in /  109.22 mm
22:30 4.5 °F /  -15.3 °C 2.5 °F /  -16.4 °C 1008.0 in /  34130.9 hPa NNE 4.8 mph /  7.7 km/h 4.8 mph /  7.7 km/h 87 % 0.0 in /  0 mm
22:31 4.7 °F /  -15.2 °C 2.4 °F /  -16.4 °C 1011.7 in /  34256.2 hPa NNE 1.9 mph /  3.1 km/h   85 % 4.3 in /  109.22 mm
22:36 4.7 °F /  -15.2 °C 2.4 °F /  -16.4 °C 1011.7 in /  34256.2 hPa NE 1.9 mph /  3.1 km/h   85 % 5.3 in /  134.62 mm
22:40 4.6 °F /  -15.2 °C 2.6 °F /  -16.3 °C 1007.0 in /  34097 hPa NE 4.8 mph /  7.7 km/h 8.0 mph /  12.9 km/h 87 % 0.0 in /  0 mm
22:41 4.7 °F /  -15.2 °C 2.4 °F /  -16.4 °C 1011.7 in /  34256.2 hPa NNE 1.9 mph /  3.1 km/h   85 % 5.3 in /  134.62 mm
22:46 4.7 °F /  -15.2 °C 2.4 °F /  -16.4 °C 1010.7 in /  34222.3 hPa Calm     85 % 5.3 in /  134.62 mm
22:50 4.5 °F /  -15.3 °C 2.5 °F /  -16.4 °C 1007.0 in /  34097 hPa NNE 4.8 mph /  7.7 km/h 8.0 mph /  12.9 km/h 87 % 0.0 in /  0 mm
22:51 4.7 °F /  -15.2 °C 2.4 °F /  -16.4 °C 1010.7 in /  34222.3 hPa North 1.9 mph /  3.1 km/h   85 % 5.3 in /  134.62 mm
22:56 4.6 °F /  -15.2 °C 2.3 °F /  -16.5 °C 1010.7 in /  34222.3 hPa Calm     85 % 5.3 in /  134.62 mm
23:00 4.7 °F /  -15.2 °C 2.7 °F /  -16.3 °C 1007.0 in /  34097 hPa NNE 4.8 mph /  7.7 km/h 9.7 mph /  15.6 km/h 87 % 0.0 in /  0 mm
23:01 4.6 °F /  -15.2 °C 2.3 °F /  -16.5 °C 1010.7 in /  34222.3 hPa WNW 3.7 mph /  6 km/h 3.7 mph /  6 km/h 85 % 5.3 in /  134.62 mm
23:06 4.7 °F /  -15.2 °C 2.4 °F /  -16.4 °C 1010.7 in /  34222.3 hPa Calm     85 % 5.3 in /  134.62 mm
23:10 4.8 °F /  -15.1 °C 3.0 °F /  -16.1 °C 1007.0 in /  34097 hPa NNE 3.2 mph /  5.1 km/h 4.8 mph /  7.7 km/h 88 % 0.0 in /  0 mm
23:11 4.7 °F /  -15.2 °C 2.4 °F /  -16.4 °C 1010.7 in /  34222.3 hPa Calm     85 % 5.3 in /  134.62 mm
23:16 4.7 °F /  -15.2 °C 2.4 °F /  -16.4 °C 1011.7 in /  34256.2 hPa WSW 3.7 mph /  6 km/h 3.7 mph /  6 km/h 85 % 5.3 in /  134.62 mm
23:21 4.7 °F /  -15.2 °C 2.4 °F /  -16.4 °C 1011.7 in /  34256.2 hPa SW 3.7 mph /  6 km/h   85 % 5.3 in /  134.62 mm
23:26 4.7 °F /  -15.2 °C 2.4 °F /  -16.4 °C 1011.7 in /  34256.2 hPa Calm     85 % 1.0 in /  25.4 mm
23:30 4.8 °F /  -15.1 °C 3.0 °F /  -16.1 °C 1008.0 in /  34130.9 hPa WSW 1.6 mph /  2.6 km/h 4.8 mph /  7.7 km/h 88 % 0.0 in /  0 mm
23:31 4.6 °F /  -15.2 °C 2.3 °F /  -16.5 °C 1010.7 in /  34222.3 hPa NW 1.9 mph /  3.1 km/h 1.9 mph /  3.1 km/h 85 % 1.0 in /  25.4 mm
23:36 4.7 °F /  -15.2 °C 2.4 °F /  -16.4 °C 1010.7 in /  34222.3 hPa NNE 5.6 mph /  9 km/h 5.6 mph /  9 km/h 85 % 0.0 in /  0 mm
23:40 4.8 °F /  -15.1 °C 3.0 °F /  -16.1 °C 1007.0 in /  34097 hPa North 1.6 mph /  2.6 km/h 1.6 mph /  2.6 km/h 88 % 0.0 in /  0 mm
23:41 4.7 °F /  -15.2 °C 2.4 °F /  -16.4 °C 1010.7 in /  34222.3 hPa ENE 5.6 mph /  9 km/h 5.6 mph /  9 km/h 85 % 0.0 in /  0 mm
23:46 4.6 °F /  -15.2 °C 2.3 °F /  -16.5 °C 1010.0 in /  34198.6 hPa NNE 5.8 mph /  9.3 km/h 5.8 mph /  9.3 km/h 85 % 0.0 in /  0 mm
23:50 4.8 °F /  -15.1 °C 3.0 °F /  -16.1 °C 1007.0 in /  34097 hPa NNE 4.8 mph /  7.7 km/h 6.4 mph /  10.3 km/h 88 % 0.0 in /  0 mm
23:51 4.6 °F /  -15.2 °C 2.3 °F /  -16.5 °C 1010.0 in /  34198.6 hPa NNE 5.6 mph /  9 km/h 5.6 mph /  9 km/h 85 % 0.0 in /  0 mm
23:56 4.5 °F /  -15.3 °C 2.2 °F /  -16.6 °C 1010.0 in /  34198.6 hPa NNE 3.7 mph /  6 km/h 3.7 mph /  6 km/h 85 % 0.0 in /  0 mm
Meteo Sesrovires
Elogis d' Weather Underground - 1.75 mb

Guio original per  Jim McMurry - jmcmurry@mwt.net Adaptat per a la plantilla per  Wim van der Kuil - Leuven-Template.eu

Trobareu la nostra informacio del temps tambe a:

Weather Underground

AWEKAS